Time;durP1;ratioP1;P1;durP2;ratioP2;P2;SDS_P1;SDS_P2;PMS_P1;PMS_P2;Temp;Humidity;BMP_temperature;BMP_pressure;BME280_temperature;BME280_humidity;BME280_pressure;Samples;Min_cycle;Max_cycle;Signal;HPM_P1;HPM_P2
2023/12/26 00:01:55;;;;;;;5.80;3.40;;;;;;;8.91;88.84;99395.98;127028;1294;128988;-67
2023/12/26 00:05:46;;;;;;;;;;;;;;;;;;;;;
2023/12/26 00:09:19;;;;;;;4.70;1.80;;;;;;;8.92;89.05;99395.41;124848;1329;114913;-69
2023/12/26 00:13:04;;;;;;;9.00;2.40;;;;;;;8.95;89.40;99397.55;124754;1307;114957;-68
2023/12/26 00:16:22;;;;;;;5.00;2.30;;;;;;;8.97;89.92;99394.37;124823;1311;115352;-68
2023/12/26 00:19:47;;;;;;;4.80;2.20;;;;;;;9.00;89.93;99393.17;124681;1311;129326;-68
2023/12/26 00:23:28;;;;;;;5.40;2.70;;;;;;;9.03;90.06;99397.23;125016;1311;115031;-68
2023/12/26 00:27:11;;;;;;;4.80;2.10;;;;;;;9.06;89.95;99396.02;125298;1306;115668;-68
2023/12/26 00:35:15;;;;;;;10.30;3.90;;;;;;;9.14;89.95;99374.73;125633;1316;115034;-68
2023/12/26 00:39:10;;;;;;;;;;;;;;;;;;;;;
2023/12/26 00:43:04;;;;;;;3.60;1.70;;;;;;;9.20;90.27;99352.96;125228;1302;115128;-68
2023/12/26 00:46:46;;;;;;;;;;;;;;;;;;;;;
2023/12/26 00:50:29;;;;;;;;;;;;;;;;;;;;;
2023/12/26 00:54:32;;;;;;;5.00;3.10;;;;;;;9.30;90.24;99365.93;126806;1290;114970;-68
2023/12/26 00:58:10;;;;;;;;;;;;;;;;;;;;;
2023/12/26 01:02:27;;;;;;;6.10;2.50;;;;;;;9.35;90.01;99367.21;125908;1309;115014;-68
2023/12/26 01:06:04;;;;;;;;;;;;;;;;;;;;;
2023/12/26 01:09:55;;;;;;;;;;;;;;;;;;;;;
2023/12/26 01:13:34;;;;;;;5.70;1.90;;;;;;;9.35;90.03;99351.73;125027;1307;114993;-69
2023/12/26 01:25:28;;;;;;;4.00;2.30;;;;;;;9.38;90.07;99337.10;124504;1311;115091;-69
2023/12/26 01:31:37;;;;;;;3.00;1.60;;;;;;;9.40;90.14;99336.63;129807;1269;114808;-72
2023/12/26 01:34:39;;;;;;;;;;;;;;;9.42;90.32;99335.43;129202;1273;126846;-69
2023/12/26 01:37:42;;;;;;;3.40;1.50;;;;;;;9.44;90.74;99329.83;129267;1288;114799;-68
2023/12/26 01:40:44;;;;;;;2.20;1.60;;;;;;;9.45;90.95;99326.38;129397;1270;115907;-74
2023/12/26 01:43:46;;;;;;;3.20;1.60;;;;;;;9.46;91.06;99314.39;129063;1285;114808;-77
2023/12/26 01:46:48;;;;;;;3.60;1.80;;;;;;;9.47;91.12;99308.44;129129;1272;114836;-67
2023/12/26 01:49:50;;;;;;;3.40;1.80;;;;;;;9.48;91.23;99304.80;129338;1288;114765;-78
2023/12/26 01:52:53;;;;;;;4.90;2.30;;;;;;;9.50;91.23;99300.58;129315;1288;114788;-77
2023/12/26 01:55:56;;;;;;;4.00;1.90;;;;;;;9.50;91.09;99293.27;129313;1271;114821;-67
2023/12/26 01:58:58;;;;;;;3.70;1.80;;;;;;;9.52;91.31;99296.19;129311;1270;115112;-74
2023/12/26 02:02:00;;;;;;;2.80;1.70;;;;;;;9.52;91.29;99284.56;129226;1283;115125;-73
2023/12/26 02:05:03;;;;;;;2.70;1.50;;;;;;;9.54;91.26;99286.80;129332;1270;115152;-69
2023/12/26 02:08:06;;;;;;;2.80;1.70;;;;;;;9.55;91.21;99281.92;129264;1270;114814;-66
2023/12/26 02:11:08;;;;;;;3.30;1.70;;;;;;;9.55;91.19;99284.75;129373;1288;115103;-71
2023/12/26 02:14:10;;;;;;;2.10;1.20;;;;;;;9.54;91.03;99277.33;129359;1288;114746;-75
2023/12/26 02:17:17;;;;;;;3.20;1.80;;;;;;;9.54;90.96;99276.09;129292;1279;127506;-68
2023/12/26 02:20:19;;;;;;;2.80;1.90;;;;;;;9.53;90.91;99274.01;129352;1270;114806;-72
2023/12/26 02:23:23;;;;;;;3.20;1.40;;;;;;;9.51;90.86;99270.91;129297;1275;115337;-75
2023/12/26 02:26:28;;;;;;;2.60;1.30;;;;;;;9.50;90.71;99265.64;129186;1270;114847;-72
2023/12/26 02:29:30;;;;;;;;;;;;;;;9.50;90.76;99255.90;129288;1272;115173;-67
2023/12/26 02:32:34;;;;;;;2.40;1.60;;;;;;;9.48;90.66;99256.48;129294;1270;114804;-67
2023/12/26 02:35:37;;;;;;;2.80;1.40;;;;;;;9.48;90.64;99247.23;129223;1266;114819;-77
2023/12/26 02:38:39;;;;;;;2.20;1.40;;;;;;;9.49;90.57;99245.08;129148;1273;114834;-73
2023/12/26 02:41:41;;;;;;;2.40;1.70;;;;;;;9.50;90.64;99240.17;129255;1289;114755;-70
2023/12/26 02:44:43;;;;;;;3.70;2.00;;;;;;;9.52;90.59;99235.59;129049;1266;114862;-80
2023/12/26 02:47:45;;;;;;;2.50;1.70;;;;;;;9.54;90.62;99231.55;129332;1266;114747;-68
2023/12/26 02:50:47;;;;;;;3.10;1.50;;;;;;;9.54;90.45;99232.06;129455;1270;114802;-76
2023/12/26 02:53:51;;;;;;;1.90;1.70;;;;;;;9.55;90.54;99230.02;129396;1272;129029;-77
2023/12/26 02:56:54;;;;;;;2.70;1.50;;;;;;;9.57;90.37;99230.30;129309;1289;114828;-67
2023/12/26 02:59:56;;;;;;;4.10;1.80;;;;;;;9.57;90.32;99228.84;129232;1289;114747;-67
2023/12/26 03:02:58;;;;;;;1.90;1.20;;;;;;;9.58;90.37;99219.17;129366;1275;114737;-75
2023/12/26 03:06:00;;;;;;;2.30;1.20;;;;;;;9.58;90.13;99210.80;129366;1289;114792;-71
2023/12/26 03:09:02;;;;;;;1.90;1.00;;;;;;;9.59;90.16;99206.61;129271;1270;115254;-67
2023/12/26 03:12:04;;;;;;;2.40;1.40;;;;;;;9.59;90.00;99195.23;129119;1266;115720;-76
2023/12/26 03:15:07;;;;;;;2.70;1.20;;;;;;;9.60;90.26;99191.09;129067;1289;127930;-65
2023/12/26 03:18:09;;;;;;;1.70;1.50;;;;;;;9.60;90.24;99188.07;129224;1272;115115;-74
2023/12/26 03:21:11;;;;;;;2.00;1.40;;;;;;;9.62;90.07;99189.54;129300;1270;114773;-78
2023/12/26 03:24:13;;;;;;;2.10;1.10;;;;;;;9.63;90.10;99188.73;129078;1289;114842;-69
2023/12/26 03:27:16;;;;;;;2.10;1.10;;;;;;;9.64;90.05;99180.27;128899;1270;114767;-70
2023/12/26 03:30:18;;;;;;;3.60;1.60;;;;;;;9.66;90.07;99178.19;129271;1266;114831;-68
2023/12/26 03:33:20;;;;;;;4.60;2.70;;;;;;;9.69;89.98;99173.02;129370;1271;114830;-76
2023/12/26 03:36:23;;;;;;;5.70;2.90;;;;;;;9.69;89.96;99165.86;129233;1273;128831;-68
2023/12/26 03:39:25;;;;;;;3.30;1.10;;;;;;;9.70;89.88;99173.34;129215;1270;115293;-80
2023/12/26 03:42:27;;;;;;;2.10;1.20;;;;;;;9.71;89.89;99171.31;129272;1270;115189;-69
2023/12/26 03:45:29;;;;;;;1.50;1.30;;;;;;;9.72;89.72;99166.08;129402;1270;115480;-80
2023/12/26 03:48:31;;;;;;;1.60;1.20;;;;;;;9.71;89.74;99154.14;129270;1266;114769;-74
2023/12/26 03:51:34;;;;;;;1.10;0.60;;;;;;;9.72;89.81;99156.26;129244;1271;114713;-71
2023/12/26 03:54:37;;;;;;;1.30;0.70;;;;;;;9.73;89.80;99156.16;129766;1282;115161;-75
2023/12/26 03:57:41;;;;;;;2.10;1.10;;;;;;;9.74;89.71;99152.55;129912;1278;114779;-71
2023/12/26 04:00:43;;;;;;;1.90;0.70;;;;;;;9.75;90.02;99148.23;129684;1267;116327;-67
2023/12/26 04:03:46;;;;;;;1.40;0.70;;;;;;;9.74;89.85;99147.55;129828;1263;115163;-75
2023/12/26 04:06:48;;;;;;;1.20;0.80;;;;;;;9.75;89.88;99143.60;129716;1262;114728;-70
2023/12/26 04:09:50;;;;;;;1.50;0.90;;;;;;;9.76;89.77;99143.70;129788;1262;115105;-77
2023/12/26 04:12:52;;;;;;;4.20;1.10;;;;;;;9.77;89.91;99137.21;129742;1260;115186;-74
2023/12/26 04:15:54;;;;;;;1.80;1.00;;;;;;;9.77;89.57;99128.67;129699;1281;114711;-73
2023/12/26 04:18:56;;;;;;;1.60;1.20;;;;;;;9.76;89.70;99122.98;129841;1262;114807;-70
2023/12/26 04:21:58;;;;;;;1.40;0.80;;;;;;;9.76;89.68;99118.90;129765;1282;114689;-76
2023/12/26 04:25:01;;;;;;;1.80;1.30;;;;;;;9.77;89.50;99114.77;129822;1262;115166;-68
2023/12/26 04:28:03;;;;;;;1.20;0.70;;;;;;;9.77;89.51;99112.79;129844;1262;114991;-77
2023/12/26 04:31:05;;;;;;;1.10;0.70;;;;;;;9.79;89.55;99106.98;129724;1282;114798;-77
2023/12/26 04:34:07;;;;;;;0.90;0.40;;;;;;;9.79;89.34;99098.19;129764;1262;114895;-76
2023/12/26 04:37:10;;;;;;;1.20;0.70;;;;;;;9.80;89.17;99097.80;129933;1275;114818;-75
2023/12/26 04:40:12;;;;;;;1.10;0.80;;;;;;;9.81;89.20;99095.02;129693;1282;128844;-73
2023/12/26 04:43:17;;;;;;;1.00;0.40;;;;;;;9.83;89.03;99089.58;129681;1262;114776;-75
2023/12/26 04:46:19;;;;;;;0.90;0.40;;;;;;;9.84;89.08;99085.42;129582;1274;114730;-74
2023/12/26 04:49:21;;;;;;;1.20;0.40;;;;;;;9.86;88.91;99084.16;129739;1262;114776;-75
2023/12/26 04:52:23;;;;;;;0.80;0.50;;;;;;;9.89;88.98;99082.94;129721;1263;115246;-71
2023/12/26 04:55:25;;;;;;;1.60;0.60;;;;;;;9.92;88.79;99081.66;129484;1263;116107;-71
2023/12/26 04:58:27;;;;;;;0.70;0.40;;;;;;;9.95;88.75;99083.77;129843;1262;114847;-67
2023/12/26 05:01:29;;;;;;;0.80;0.50;;;;;;;9.98;88.70;99081.60;130006;1260;114742;-75
2023/12/26 05:04:32;;;;;;;1.20;0.60;;;;;;;10.01;88.57;99081.95;129515;1260;114811;-72
2023/12/26 05:07:34;;;;;;;1.10;0.50;;;;;;;10.03;88.51;99086.27;129732;1262;115094;-66
2023/12/26 05:10:36;;;;;;;2.00;0.60;;;;;;;10.06;88.48;99087.88;129700;1265;115253;-67
2023/12/26 05:13:38;;;;;;;0.70;0.40;;;;;;;10.09;88.20;99088.59;129701;1260;114788;-69
2023/12/26 05:16:42;;;;;;;1.00;0.50;;;;;;;10.10;87.97;99087.77;129854;1262;114758;-66
2023/12/26 05:19:44;;;;;;;0.70;0.30;;;;;;;10.12;87.78;99087.79;129684;1262;114840;-74
2023/12/26 05:22:46;;;;;;;1.50;0.60;;;;;;;10.15;88.06;99082.27;129708;1262;114712;-68
2023/12/26 05:25:49;;;;;;;1.00;0.40;;;;;;;10.17;87.95;99077.52;129778;1261;114891;-67
2023/12/26 05:28:51;;;;;;;1.00;0.60;;;;;;;10.19;87.93;99076.95;129805;1262;114768;-75
2023/12/26 05:31:53;;;;;;;0.70;0.30;;;;;;;10.22;87.71;99078.44;129724;1262;115159;-66
2023/12/26 05:34:55;;;;;;;1.10;0.70;;;;;;;10.24;87.60;99079.14;129754;1262;115180;-72
2023/12/26 05:37:57;;;;;;;0.80;0.30;;;;;;;10.25;87.72;99082.13;129478;1260;114750;-70
2023/12/26 05:41:03;;;;;;;0.70;0.50;;;;;;;10.27;87.50;99083.59;129649;1262;114805;-69
2023/12/26 05:44:05;;;;;;;0.80;0.40;;;;;;;10.29;87.27;99078.85;129690;1262;114718;-76
2023/12/26 05:47:07;;;;;;;0.80;0.60;;;;;;;10.29;87.27;99079.33;129747;1259;116402;-74
2023/12/26 05:50:09;;;;;;;0.80;0.30;;;;;;;10.31;87.22;99084.95;129713;1262;114836;-75
2023/12/26 05:53:12;;;;;;;1.30;0.30;;;;;;;10.32;87.05;99087.02;129772;1260;114853;-66
2023/12/26 05:56:14;;;;;;;0.90;0.50;;;;;;;10.33;86.89;99090.54;129695;1262;115350;-67
2023/12/26 05:59:16;;;;;;;1.10;0.60;;;;;;;10.34;86.85;99090.43;129593;1265;114786;-67
2023/12/26 06:02:19;;;;;;;0.60;0.30;;;;;;;10.35;86.95;99096.96;129777;1260;114837;-66
2023/12/26 06:05:21;;;;;;;1.10;0.60;;;;;;;10.36;86.91;99096.36;129691;1259;114807;-67
2023/12/26 06:08:23;;;;;;;1.00;0.50;;;;;;;10.37;86.64;99095.45;129844;1262;115141;-76
2023/12/26 06:11:25;;;;;;;0.80;0.50;;;;;;;10.37;86.75;99093.83;129973;1262;114760;-74
2023/12/26 06:14:27;;;;;;;1.00;0.40;;;;;;;10.38;86.93;99097.70;129517;1262;114912;-76
2023/12/26 06:17:29;;;;;;;0.80;0.60;;;;;;;10.39;87.00;99093.70;129779;1262;114700;-73
2023/12/26 06:20:31;;;;;;;0.60;0.30;;;;;;;10.40;86.96;99089.52;129957;1260;114722;-73
2023/12/26 06:23:33;;;;;;;1.20;0.60;;;;;;;10.39;87.13;99090.12;129698;1281;127953;-71
2023/12/26 06:26:35;;;;;;;1.60;0.40;;;;;;;10.39;87.09;99092.45;129826;1262;114738;-70
2023/12/26 06:29:38;;;;;;;0.90;0.40;;;;;;;10.38;87.47;99100.57;129934;1262;115499;-73
2023/12/26 06:32:40;;;;;;;0.80;0.60;;;;;;;10.37;87.29;99102.95;129756;1260;115177;-69
2023/12/26 06:35:42;;;;;;;1.00;0.60;;;;;;;10.37;87.23;99108.65;129776;1262;114748;-73
2023/12/26 06:38:44;;;;;;;1.80;0.60;;;;;;;10.36;87.73;99099.97;129860;1262;114747;-75
2023/12/26 06:41:46;;;;;;;2.60;0.90;;;;;;;10.37;87.75;99100.99;129788;1271;114894;-71
2023/12/26 06:44:49;;;;;;;1.70;0.70;;;;;;;10.36;87.82;99101.39;129787;1282;115163;-66
2023/12/26 06:47:51;;;;;;;1.50;0.70;;;;;;;10.35;87.74;99098.56;129834;1274;114910;-68
2023/12/26 06:50:54;;;;;;;1.20;0.60;;;;;;;10.35;87.93;99091.28;129930;1268;115186;-70
2023/12/26 06:53:59;;;;;;;1.30;0.70;;;;;;;10.34;87.50;99097.43;129853;1262;114713;-74
2023/12/26 06:57:07;;;;;;;1.60;0.60;;;;;;;10.32;87.72;99099.87;129778;1263;114760;-67
2023/12/26 07:00:10;;;;;;;1.80;0.80;;;;;;;10.29;87.42;99105.05;129792;1263;114749;-73
2023/12/26 07:03:12;;;;;;;3.20;2.10;;;;;;;10.25;87.45;99104.45;129762;1262;114737;-68
2023/12/26 07:06:14;;;;;;;3.00;1.20;;;;;;;10.21;87.57;99108.63;129814;1258;114798;-73
2023/12/26 07:09:16;;;;;;;1.70;1.00;;;;;;;10.18;87.44;99111.50;129876;1262;114933;-73
2023/12/26 07:12:18;;;;;;;1.50;0.50;;;;;;;10.15;87.41;99115.81;129935;1262;114834;-68
2023/12/26 07:15:20;;;;;;;1.80;0.80;;;;;;;10.12;87.22;99118.68;129902;1262;114824;-74
2023/12/26 07:18:22;;;;;;;3.70;1.20;;;;;;;10.09;87.20;99122.27;129812;1262;115091;-72
2023/12/26 07:21:25;;;;;;;17.50;5.40;;;;;;;10.06;87.23;99126.97;129825;1262;114782;-67
2023/12/26 07:24:27;;;;;;;17.80;4.10;;;;;;;10.03;87.06;99130.68;129645;1275;114858;-75
2023/12/26 07:27:29;;;;;;;11.10;3.50;;;;;;;10.01;87.28;99132.73;129859;1262;116431;-72
2023/12/26 07:30:31;;;;;;;9.80;3.40;;;;;;;10.03;87.20;99136.25;129777;1262;114744;-72
2023/12/26 07:33:33;;;;;;;8.70;2.70;;;;;;;10.03;87.48;99140.64;129829;1262;115199;-66
2023/12/26 07:36:35;;;;;;;18.70;7.40;;;;;;;10.05;87.36;99139.30;129939;1262;116376;-67
2023/12/26 07:39:37;;;;;;;8.60;3.50;;;;;;;10.08;87.25;99145.36;129777;1260;114773;-78
2023/12/26 07:42:40;;;;;;;9.50;4.80;;;;;;;10.11;87.36;99149.98;129959;1262;115409;-67
2023/12/26 07:45:42;;;;;;;6.50;3.80;;;;;;;10.14;87.28;99144.38;129738;1265;115151;-74
2023/12/26 07:48:44;;;;;;;5.70;3.60;;;;;;;10.19;87.23;99152.83;129474;1262;127882;-73
2023/12/26 07:51:47;;;;;;;3.90;2.30;;;;;;;10.24;87.16;99156.46;129822;1261;114734;-76
2023/12/26 07:54:49;;;;;;;1.50;1.20;;;;;;;10.28;87.12;99157.76;129956;1262;115380;-68
2023/12/26 07:57:51;;;;;;;1.20;0.80;;;;;;;10.33;87.07;99162.08;129610;1281;114872;-69
2023/12/26 08:00:53;;;;;;;1.50;0.90;;;;;;;10.39;86.73;99170.65;129768;1281;114794;-74
2023/12/26 08:03:55;;;;;;;1.20;0.70;;;;;;;10.44;86.75;99170.10;129827;1276;114818;-75
2023/12/26 08:06:58;;;;;;;1.40;0.60;;;;;;;10.49;86.70;99168.88;129587;1266;114962;-71
2023/12/26 08:10:00;;;;;;;2.70;1.30;;;;;;;10.55;86.84;99172.44;129701;1281;114860;-71
2023/12/26 08:13:02;;;;;;;1.80;1.00;;;;;;;10.60;86.61;99172.96;129875;1281;114720;-67
2023/12/26 08:16:05;;;;;;;1.60;1.10;;;;;;;10.65;86.38;99177.98;129661;1281;115083;-67
2023/12/26 08:19:07;;;;;;;2.20;1.00;;;;;;;10.70;86.22;99187.52;129792;1260;115091;-66
2023/12/26 08:22:09;;;;;;;1.70;0.60;;;;;;;10.73;86.09;99188.02;129774;1260;114743;-71
2023/12/26 08:25:12;;;;;;;1.00;0.70;;;;;;;10.76;85.64;99202.04;129738;1259;114971;-76
2023/12/26 08:28:14;;;;;;;1.50;0.80;;;;;;;10.80;85.72;99210.71;129762;1259;114663;-70
2023/12/26 08:31:16;;;;;;;1.40;0.80;;;;;;;10.85;85.87;99218.98;129733;1264;116453;-66
2023/12/26 08:34:18;;;;;;;1.70;1.10;;;;;;;10.90;85.39;99222.02;129826;1262;116522;-66
2023/12/26 08:37:20;;;;;;;2.40;1.10;;;;;;;10.95;85.99;99224.22;129703;1262;114824;-66
2023/12/26 08:40:23;;;;;;;1.90;0.70;;;;;;;10.99;85.26;99231.44;129681;1263;115409;-76
2023/12/26 08:43:25;;;;;;;1.70;0.60;;;;;;;11.03;84.80;99233.31;129799;1260;114804;-75
2023/12/26 08:46:27;;;;;;;1.10;0.60;;;;;;;11.07;84.39;99238.95;129586;1262;114719;-76
2023/12/26 08:49:29;;;;;;;1.60;0.90;;;;;;;11.12;84.74;99240.20;129867;1266;115128;-76
2023/12/26 08:52:32;;;;;;;1.00;0.40;;;;;;;11.18;84.18;99243.20;129826;1262;114753;-66
2023/12/26 08:55:34;;;;;;;1.20;0.50;;;;;;;11.23;83.82;99247.08;129788;1265;114712;-66
2023/12/26 08:58:36;;;;;;;1.20;0.40;;;;;;;11.30;83.79;99249.89;129705;1262;114797;-70
2023/12/26 09:01:38;;;;;;;1.60;1.30;;;;;;;11.35;83.80;99258.23;130009;1260;114723;-66
2023/12/26 09:04:40;;;;;;;2.20;1.70;;;;;;;11.42;83.67;99274.61;129723;1263;115401;-66
2023/12/26 09:07:42;;;;;;;1.80;0.70;;;;;;;11.46;83.40;99269.86;129849;1270;114782;-75
2023/12/26 09:10:44;;;;;;;1.00;0.50;;;;;;;11.51;83.13;99276.85;129816;1262;114735;-76
2023/12/26 09:13:47;;;;;;;1.40;0.70;;;;;;;11.53;82.82;99279.53;129860;1262;114667;-75
2023/12/26 09:16:49;;;;;;;1.70;0.90;;;;;;;11.56;82.76;99285.09;129766;1262;127889;-73
2023/12/26 09:19:51;;;;;;;1.20;0.40;;;;;;;11.57;82.27;99289.45;129807;1260;114809;-76
2023/12/26 09:22:53;;;;;;;1.00;0.50;;;;;;;11.59;82.52;99294.31;129851;1262;115298;-76
2023/12/26 09:25:56;;;;;;;1.50;0.60;;;;;;;11.61;81.58;99294.20;129713;1260;114819;-77
2023/12/26 09:28:58;;;;;;;1.50;0.80;;;;;;;11.65;81.65;99301.64;129746;1260;114724;-69
2023/12/26 09:32:00;;;;;;;3.40;0.90;;;;;;;11.68;81.70;99302.98;129699;1259;114790;-67
2023/12/26 09:35:03;;;;;;;1.20;0.60;;;;;;;11.70;81.35;99308.59;129773;1259;115727;-75
2023/12/26 09:38:05;;;;;;;2.10;0.80;;;;;;;11.72;81.06;99309.36;129666;1283;128208;-66
2023/12/26 09:41:08;;;;;;;1.30;0.80;;;;;;;11.75;81.08;99308.77;129725;1260;115337;-75
2023/12/26 09:44:11;;;;;;;1.90;0.80;;;;;;;11.79;80.68;99311.91;129795;1263;114804;-65
2023/12/26 09:47:13;;;;;;;1.30;0.60;;;;;;;11.82;80.49;99317.39;129750;1265;114779;-70
2023/12/26 09:50:15;;;;;;;0.70;0.30;;;;;;;11.85;80.11;99317.03;129528;1260;115056;-65
2023/12/26 09:53:19;;;;;;;0.90;0.50;;;;;;;11.89;79.82;99315.67;129944;1262;114757;-65
2023/12/26 09:56:21;;;;;;;0.90;0.40;;;;;;;11.95;79.63;99312.92;129678;1265;114793;-71
2023/12/26 09:59:26;;;;;;;1.40;0.50;;;;;;;12.03;79.55;99316.31;129509;1262;114785;-78
2023/12/26 10:02:28;;;;;;;1.10;0.40;;;;;;;12.10;79.42;99317.61;129793;1281;114811;-75
2023/12/26 10:05:30;;;;;;;1.70;0.70;;;;;;;12.17;79.22;99320.69;129714;1262;115123;-69
2023/12/26 10:08:32;;;;;;;0.80;0.40;;;;;;;12.25;78.75;99322.84;129910;1263;114796;-76
2023/12/26 10:11:34;;;;;;;2.10;1.30;;;;;;;12.29;78.28;99323.20;129637;1267;114770;-66
2023/12/26 10:14:37;;;;;;;1.50;0.60;;;;;;;12.34;78.23;99328.96;129828;1275;115124;-77
2023/12/26 10:17:42;;;;;;;1.10;0.40;;;;;;;12.37;77.87;99331.94;130156;1260;114749;-66
2023/12/26 10:20:44;;;;;;;3.00;1.10;;;;;;;12.41;77.55;99330.77;129904;1262;114868;-76
2023/12/26 10:23:46;;;;;;;1.40;0.70;;;;;;;12.41;77.23;99340.60;129773;1265;114782;-66
2023/12/26 10:26:49;;;;;;;2.50;0.60;;;;;;;12.42;77.21;99340.77;129662;1281;114937;-79
2023/12/26 10:29:54;;;;;;;2.30;0.70;;;;;;;12.42;77.23;99347.35;129738;1260;114783;-72
2023/12/26 10:33:03;;;;;;;1.40;0.50;;;;;;;12.43;77.02;99355.17;129759;1281;128867;-71
2023/12/26 10:36:06;;;;;;;1.00;0.40;;;;;;;12.47;76.83;99356.17;129555;1281;114950;-75
2023/12/26 10:39:10;;;;;;;1.60;0.70;;;;;;;12.50;76.61;99359.20;129991;1260;115098;-78
2023/12/26 10:42:14;;;;;;;1.60;1.10;;;;;;;12.51;76.46;99366.05;129635;1268;114825;-68
2023/12/26 10:45:20;;;;;;;2.70;1.70;;;;;;;12.52;76.30;99366.17;129871;1278;114761;-68
2023/12/26 10:48:25;;;;;;;1.40;0.60;;;;;;;12.52;75.90;99368.89;129522;1258;127744;-77
2023/12/26 10:51:29;;;;;;;2.50;0.70;;;;;;;12.50;75.97;99373.31;129515;1270;114828;-69
2023/12/26 10:54:32;;;;;;;1.30;0.80;;;;;;;12.49;76.04;99379.63;129550;1260;114933;-76
2023/12/26 10:57:35;;;;;;;0.90;0.40;;;;;;;12.46;75.96;99385.06;129752;1282;114740;-67
2023/12/26 11:00:40;;;;;;;1.00;0.40;;;;;;;12.40;75.60;99384.37;129795;1262;114840;-70
2023/12/26 11:03:42;;;;;;;1.00;0.50;;;;;;;12.34;75.56;99393.41;129554;1282;128791;-68
2023/12/26 11:06:44;;;;;;;2.90;1.20;;;;;;;12.27;75.79;99418.59;129773;1260;115181;-76
2023/12/26 11:09:46;;;;;;;1.90;0.90;;;;;;;12.18;76.23;99448.81;129548;1263;313264;-65
2023/12/26 11:12:49;;;;;;;1.80;1.30;;;;;;;12.03;76.71;99455.42;129537;1260;114721;-65
2023/12/26 11:15:53;;;;;;;1.00;0.50;;;;;;;11.82;77.06;99456.77;129812;1262;114751;-72
2023/12/26 11:18:55;;;;;;;1.20;0.50;;;;;;;11.66;77.68;99466.42;129797;1267;114762;-66
2023/12/26 11:21:57;;;;;;;1.90;0.90;;;;;;;11.54;77.77;99467.97;129716;1260;114718;-66
2023/12/26 11:24:59;;;;;;;1.90;1.30;;;;;;;11.45;78.09;99467.46;129750;1266;115288;-64
2023/12/26 11:28:01;;;;;;;3.10;1.60;;;;;;;11.37;77.91;99482.80;129865;1282;115217;-76
2023/12/26 11:31:04;;;;;;;1.80;1.00;;;;;;;11.34;77.81;99491.09;129691;1262;114755;-68
2023/12/26 11:34:09;;;;;;;3.60;1.80;;;;;;;11.32;78.25;99486.91;129820;1282;114740;-76
2023/12/26 11:37:11;;;;;;;;;;;;;;;11.35;78.12;99493.32;129676;1265;114742;-65
2023/12/26 11:40:13;;;;;;;0.80;0.50;;;;;;;11.38;78.25;99492.97;129767;1259;115162;-72
2023/12/26 11:43:15;;;;;;;0.90;0.40;;;;;;;11.37;77.74;99506.81;129951;1260;115717;-67
2023/12/26 11:46:17;;;;;;;1.50;0.40;;;;;;;11.31;77.29;99509.34;129713;1281;128331;-79
2023/12/26 11:49:20;;;;;;;1.70;0.80;;;;;;;11.25;77.29;99504.16;129823;1262;115202;-79
2023/12/26 11:52:22;;;;;;;2.00;0.70;;;;;;;11.23;77.34;99507.35;129891;1262;114743;-68
2023/12/26 11:55:24;;;;;;;3.00;0.80;;;;;;;11.20;76.97;99510.40;129675;1260;114813;-72
2023/12/26 11:58:26;;;;;;;2.10;0.70;;;;;;;11.17;76.70;99518.30;129810;1262;114788;-71
2023/12/26 12:01:29;;;;;;;1.70;0.90;;;;;;;11.11;76.68;99515.47;130023;1262;114837;-79
2023/12/26 12:04:31;;;;;;;1.50;0.60;;;;;;;11.06;76.19;99517.73;129776;1282;115505;-75
2023/12/26 12:07:33;;;;;;;3.70;1.40;;;;;;;11.06;76.48;99517.75;129966;1273;114754;-66
2023/12/26 12:10:35;;;;;;;2.80;1.30;;;;;;;11.04;76.27;99508.05;130002;1281;114856;-75
2023/12/26 12:13:45;;;;;;;2.40;0.90;;;;;;;11.01;76.17;99508.76;129846;1281;114837;-72
2023/12/26 12:16:48;;;;;;;3.80;1.40;;;;;;;11.00;76.32;99514.70;129995;1262;114776;-77
2023/12/26 12:19:50;;;;;;;2.80;1.00;;;;;;;11.01;75.92;99512.70;130029;1267;114770;-74
2023/12/26 12:22:52;;;;;;;2.70;1.50;;;;;;;11.01;75.56;99519.13;130075;1260;114709;-69
2023/12/26 12:26:03;;;;;;;2.40;1.30;;;;;;;11.05;75.85;99516.16;130010;1264;115485;-73
2023/12/26 12:29:05;;;;;;;3.30;1.30;;;;;;;11.10;75.93;99516.05;130171;1265;128839;-79
2023/12/26 12:32:34;;;;;;;1.80;0.70;;;;;;;11.11;75.16;99514.93;129845;1265;115310;-76
2023/12/26 12:35:47;;;;;;;2.60;1.60;;;;;;;11.06;75.37;99522.17;129899;1260;114718;-70
2023/12/26 12:38:50;;;;;;;2.90;0.90;;;;;;;11.01;75.57;99518.44;129866;1265;114799;-74
2023/12/26 12:41:52;;;;;;;2.60;1.30;;;;;;;10.93;75.48;99518.90;129926;1263;114791;-71
2023/12/26 12:44:54;;;;;;;2.70;1.50;;;;;;;10.85;75.56;99521.35;129837;1262;114729;-71
2023/12/26 12:47:56;;;;;;;3.50;2.00;;;;;;;10.78;75.60;99523.79;129509;1268;127069;-78
2023/12/26 12:50:59;;;;;;;2.30;1.40;;;;;;;10.73;76.04;99523.73;129721;1265;115237;-65
2023/12/26 12:54:01;;;;;;;2.20;1.20;;;;;;;10.67;75.75;99524.67;129787;1263;114967;-78
2023/12/26 12:57:03;;;;;;;1.50;1.10;;;;;;;10.58;75.49;99527.91;129806;1274;114755;-77
2023/12/26 13:00:05;;;;;;;3.20;1.50;;;;;;;10.46;75.53;99531.84;129739;1260;114795;-69
2023/12/26 13:03:07;;;;;;;4.40;1.40;;;;;;;10.34;75.75;99532.88;129861;1263;114792;-69
2023/12/26 13:06:10;;;;;;;2.80;1.50;;;;;;;10.25;75.99;99538.39;129900;1265;114758;-75
2023/12/26 13:09:12;;;;;;;2.20;0.70;;;;;;;10.19;76.20;99545.93;129577;1265;127956;-73
2023/12/26 13:12:14;;;;;;;1.20;0.60;;;;;;;10.14;76.40;99551.77;129909;1264;114815;-66
2023/12/26 13:15:16;;;;;;;2.90;1.80;;;;;;;10.10;76.43;99553.06;129894;1276;115033;-74
2023/12/26 13:18:18;;;;;;;4.10;2.30;;;;;;;10.07;76.95;99560.73;129742;1262;115157;-76
2023/12/26 13:21:23;;;;;;;3.50;1.60;;;;;;;10.10;77.23;99560.59;129842;1262;114732;-65
2023/12/26 13:24:25;;;;;;;4.70;2.30;;;;;;;10.12;77.41;99560.26;129722;1260;114871;-71
2023/12/26 13:27:28;;;;;;;5.30;2.60;;;;;;;10.18;77.85;99566.65;129712;1261;114733;-66
2023/12/26 13:30:30;;;;;;;2.40;1.30;;;;;;;10.18;77.68;99569.34;129723;1263;115431;-67
2023/12/26 13:33:35;;;;;;;4.30;2.00;;;;;;;10.17;77.75;99569.44;129808;1262;114796;-75
2023/12/26 13:36:37;;;;;;;4.70;2.90;;;;;;;10.16;77.74;99580.52;129574;1264;114883;-70
2023/12/26 13:39:39;;;;;;;3.20;1.40;;;;;;;10.17;77.94;99580.68;129843;1260;114797;-75
2023/12/26 13:42:42;;;;;;;5.60;2.70;;;;;;;10.17;78.16;99587.83;129752;1262;115211;-78
2023/12/26 13:45:44;;;;;;;3.40;1.40;;;;;;;10.15;78.06;99595.77;129991;1260;114819;-73
2023/12/26 13:48:46;;;;;;;4.10;2.00;;;;;;;10.12;78.18;99600.23;129793;1263;114782;-66
2023/12/26 13:51:49;;;;;;;3.50;1.40;;;;;;;10.09;78.54;99600.23;129907;1282;116116;-67
2023/12/26 13:54:51;;;;;;;2.50;1.80;;;;;;;10.05;78.68;99607.92;129842;1282;115204;-75
2023/12/26 13:57:53;;;;;;;2.40;1.20;;;;;;;10.00;78.36;99611.26;129815;1273;114770;-73
2023/12/26 14:00:55;;;;;;;3.50;1.50;;;;;;;9.95;78.60;99618.36;129995;1262;115175;-76
2023/12/26 14:03:57;;;;;;;2.80;1.20;;;;;;;9.88;78.53;99617.69;129877;1260;114712;-72
2023/12/26 14:06:59;;;;;;;3.00;1.30;;;;;;;9.81;78.44;99618.46;129816;1282;114740;-68
2023/12/26 14:10:03;;;;;;;2.60;1.30;;;;;;;9.72;78.60;99622.16;129985;1282;114743;-67
2023/12/26 14:13:06;;;;;;;2.90;1.30;;;;;;;9.61;78.71;99618.49;129474;1268;127958;-66
2023/12/26 14:16:08;;;;;;;2.70;1.50;;;;;;;9.53;78.80;99635.52;129765;1272;114746;-65
2023/12/26 14:19:10;;;;;;;3.50;1.70;;;;;;;9.45;79.10;99645.40;129788;1263;115397;-73
2023/12/26 14:22:13;;;;;;;2.80;1.40;;;;;;;9.41;79.29;99646.36;129886;1262;114808;-64
2023/12/26 14:25:18;;;;;;;3.60;1.20;;;;;;;9.37;79.49;99646.89;129728;1263;114721;-67
2023/12/26 14:28:20;;;;;;;3.50;1.20;;;;;;;9.34;79.65;99646.91;129656;1262;115067;-67
2023/12/26 14:31:33;;;;;;;3.70;1.20;;;;;;;9.32;79.89;99648.60;129777;1260;114743;-66
2023/12/26 14:34:53;;;;;;;3.60;2.00;;;;;;;9.31;80.05;99657.02;129733;1262;129866;-65
2023/12/26 14:37:56;;;;;;;4.80;2.90;;;;;;;9.33;80.22;99659.45;129705;1264;114740;-73
2023/12/26 14:40:59;;;;;;;4.60;2.10;;;;;;;9.34;80.54;99662.07;129733;1278;115334;-69
2023/12/26 14:44:01;;;;;;;10.90;6.80;;;;;;;9.34;80.80;99667.58;129729;1260;114799;-66